createdAt,value
2022-12-03T00:00:41.691Z,3.16
2022-12-03T00:03:08.745Z,3.16
2022-12-03T00:05:35.761Z,3.18
2022-12-03T00:08:04.276Z,3.27
2022-12-03T00:10:31.222Z,3.32
2022-12-03T00:12:58.105Z,3.36
2022-12-03T00:15:24.897Z,3.39
2022-12-03T00:17:51.711Z,3.46
2022-12-03T00:20:21.593Z,3.45
2022-12-03T00:22:48.484Z,3.50
2022-12-03T00:25:15.679Z,3.52
2022-12-03T00:27:42.886Z,3.52
2022-12-03T00:30:11.549Z,3.52
2022-12-03T00:32:38.504Z,3.47
2022-12-03T00:35:05.849Z,3.41
2022-12-03T00:37:35.257Z,3.40
2022-12-03T00:40:04.554Z,3.40
2022-12-03T00:42:31.726Z,3.35
2022-12-03T00:44:58.667Z,3.32
2022-12-03T00:47:25.623Z,3.29
2022-12-03T00:49:52.915Z,3.33
2022-12-03T00:52:19.940Z,3.32
2022-12-03T00:54:46.750Z,3.29
2022-12-03T00:57:13.694Z,3.34
2022-12-03T00:59:41.080Z,3.38
2022-12-03T01:02:07.907Z,3.43
2022-12-03T01:04:35.150Z,3.50
2022-12-03T01:07:02.287Z,3.51
2022-12-03T01:09:29.139Z,3.59
2022-12-03T01:11:56.397Z,3.62
2022-12-03T01:14:23.548Z,3.60
2022-12-03T01:16:50.334Z,3.62
2022-12-03T01:19:18.036Z,3.69
2022-12-03T01:21:47.768Z,3.72
2022-12-03T01:24:14.928Z,3.75
2022-12-03T01:26:42.055Z,3.79
2022-12-03T01:29:09.003Z,3.83
2022-12-03T01:31:54.397Z,3.89
2022-12-03T01:34:21.234Z,3.94
2022-12-03T01:36:47.996Z,3.96
2022-12-03T01:39:14.873Z,3.98
2022-12-03T01:41:41.866Z,4.05
2022-12-03T01:44:16.851Z,4.07
2022-12-03T01:46:44.890Z,4.10
2022-12-03T01:49:19.565Z,4.12
2022-12-03T01:51:49.020Z,4.10
2022-12-03T01:54:24.942Z,4.05
2022-12-03T01:56:52.969Z,4.04
2022-12-03T01:59:22.001Z,4.04
2022-12-03T02:01:49.495Z,4.09
2022-12-03T02:04:19.806Z,4.09
2022-12-03T02:06:46.839Z,4.06
2022-12-03T02:09:14.119Z,4.10
2022-12-03T02:11:44.775Z,4.13
2022-12-03T02:14:16.436Z,4.10
2022-12-03T02:16:46.071Z,4.08
2022-12-03T02:19:27.618Z,4.06
2022-12-03T02:22:19.501Z,3.98
2022-12-03T02:24:55.863Z,3.96
2022-12-03T02:27:23.267Z,3.95
2022-12-03T02:29:50.145Z,3.93
2022-12-03T02:32:17.116Z,3.92
2022-12-03T02:34:45.471Z,3.94
2022-12-03T02:37:34.998Z,3.99
2022-12-03T02:40:10.231Z,3.99
2022-12-03T02:42:37.446Z,3.94
2022-12-03T02:45:07.731Z,3.93
2022-12-03T02:47:41.268Z,3.91
2022-12-03T02:50:09.983Z,3.94
2022-12-03T02:52:37.428Z,3.98
2022-12-03T02:55:07.079Z,3.98
2022-12-03T02:57:36.267Z,3.97
2022-12-03T03:00:05.487Z,3.99
2022-12-03T03:02:33.495Z,4.04
2022-12-03T03:05:02.794Z,4.02
2022-12-03T03:07:29.873Z,4.04
2022-12-03T03:09:56.741Z,4.06
2022-12-03T03:12:23.702Z,4.09
2022-12-03T03:14:50.777Z,4.12
2022-12-03T03:17:19.311Z,4.17
2022-12-03T03:19:46.902Z,4.21
2022-12-03T03:22:13.991Z,4.24
2022-12-03T03:24:40.928Z,4.26
2022-12-03T03:27:08.092Z,4.26
2022-12-03T03:29:35.621Z,4.27
2022-12-03T03:32:04.530Z,4.26
2022-12-03T03:34:33.150Z,4.30
2022-12-03T03:37:00.987Z,4.32
2022-12-03T03:39:27.965Z,4.36
2022-12-03T03:41:54.845Z,4.39
2022-12-03T03:44:21.683Z,4.38
2022-12-03T03:46:48.872Z,4.37
2022-12-03T03:49:16.381Z,4.36
2022-12-03T03:51:44.323Z,4.36
2022-12-03T03:54:11.626Z,4.34
2022-12-03T03:56:38.791Z,4.34
2022-12-03T03:59:05.724Z,4.35
2022-12-03T04:01:33.167Z,4.37
2022-12-03T04:04:00.436Z,4.37
2022-12-03T04:06:28.233Z,4.35
2022-12-03T04:08:55.302Z,4.35
2022-12-03T04:11:40.525Z,4.34
2022-12-03T04:14:07.340Z,4.36
2022-12-03T04:16:34.271Z,4.37
2022-12-03T04:19:01.272Z,4.39
2022-12-03T04:21:46.707Z,4.38
2022-12-03T04:24:13.568Z,4.37
2022-12-03T04:26:59.105Z,4.36
2022-12-03T04:29:25.941Z,4.35
2022-12-03T04:32:11.284Z,4.32
2022-12-03T04:34:57.074Z,4.28
2022-12-03T04:37:24.419Z,4.25
2022-12-03T04:39:51.236Z,4.27
2022-12-03T04:42:18.099Z,4.24
2022-12-03T04:44:45.131Z,4.25
2022-12-03T04:47:17.980Z,4.25
2022-12-03T04:49:47.488Z,4.21
2022-12-03T04:52:16.847Z,4.19
2022-12-03T04:54:44.052Z,4.16
2022-12-03T04:57:11.665Z,4.15
2022-12-03T04:59:38.575Z,4.14
2022-12-03T05:02:06.942Z,4.12
2022-12-03T05:04:34.272Z,4.13
2022-12-03T05:07:01.952Z,4.11
2022-12-03T05:09:28.953Z,4.07
2022-12-03T05:12:10.810Z,4.06
2022-12-03T05:14:37.580Z,4.06
2022-12-03T05:17:04.471Z,4.05
2022-12-03T05:19:50.008Z,4.03
2022-12-03T05:22:16.805Z,4.03
2022-12-03T05:24:43.623Z,4.03
2022-12-03T05:27:10.531Z,4.01
2022-12-03T05:29:37.295Z,3.98
2022-12-03T05:32:04.318Z,3.96
2022-12-03T05:34:31.140Z,3.94
2022-12-03T05:36:57.985Z,3.95
2022-12-03T05:39:25.882Z,3.93
2022-12-03T05:42:11.067Z,3.93
2022-12-03T05:44:37.906Z,3.92
2022-12-03T05:47:04.718Z,3.93
2022-12-03T05:49:31.489Z,3.92
2022-12-03T05:51:58.951Z,3.93
2022-12-03T05:54:26.201Z,3.91
2022-12-03T05:56:53.557Z,3.91
2022-12-03T05:59:20.379Z,3.89
2022-12-03T06:01:47.201Z,3.88
2022-12-03T06:04:14.195Z,3.85
2022-12-03T06:06:40.963Z,3.85
2022-12-03T06:09:07.724Z,3.84
2022-12-03T06:11:37.035Z,3.84
2022-12-03T06:14:04.053Z,3.86
2022-12-03T06:16:31.063Z,3.86
2022-12-03T06:18:58.155Z,3.85
2022-12-03T06:21:24.944Z,3.83
2022-12-03T06:23:51.732Z,3.81
2022-12-03T06:26:18.899Z,3.81
2022-12-03T06:28:47.669Z,3.80
2022-12-03T06:31:14.593Z,3.78
2022-12-03T06:33:41.529Z,3.79
2022-12-03T06:36:08.668Z,3.77
2022-12-03T06:38:35.631Z,3.75
2022-12-03T06:41:02.565Z,3.75
2022-12-03T06:43:31.040Z,3.75
2022-12-03T06:45:57.840Z,3.76
2022-12-03T06:48:24.764Z,3.76
2022-12-03T06:50:51.737Z,3.72
2022-12-03T06:53:18.621Z,3.74
2022-12-03T06:55:45.456Z,3.72
2022-12-03T06:58:12.335Z,3.73
2022-12-03T07:00:39.120Z,3.73
2022-12-03T07:03:06.087Z,3.72
2022-12-03T07:05:32.913Z,3.72
2022-12-03T07:07:59.756Z,3.71
2022-12-03T07:10:26.757Z,3.70
2022-12-03T07:12:53.653Z,3.72
2022-12-03T07:15:20.534Z,3.70
2022-12-03T07:17:47.340Z,3.69
2022-12-03T07:20:16.927Z,3.67
2022-12-03T07:22:43.736Z,3.67
2022-12-03T07:25:11.409Z,3.66
2022-12-03T07:27:38.403Z,3.65
2022-12-03T07:30:07.340Z,3.65
2022-12-03T07:32:34.140Z,3.63
2022-12-03T07:35:01.311Z,3.60
2022-12-03T07:37:28.239Z,3.60
2022-12-03T07:39:55.116Z,3.59
2022-12-03T07:42:22.184Z,3.57
2022-12-03T07:44:49.001Z,3.56
2022-12-03T07:47:15.738Z,3.54
2022-12-03T07:49:42.728Z,3.54
2022-12-03T07:52:09.693Z,3.54
2022-12-03T07:54:36.948Z,3.54
2022-12-03T07:57:03.890Z,3.53
2022-12-03T07:59:30.800Z,3.51
2022-12-03T08:01:57.635Z,3.51
2022-12-03T08:04:24.630Z,3.49
2022-12-03T08:06:51.480Z,3.49
2022-12-03T08:09:18.289Z,3.48
2022-12-03T08:11:48.941Z,3.48
2022-12-03T08:14:18.204Z,3.47
2022-12-03T08:16:47.263Z,3.50
2022-12-03T08:19:16.794Z,3.48
2022-12-03T08:21:44.271Z,3.51
2022-12-03T08:24:15.461Z,3.50
2022-12-03T08:26:44.463Z,3.47
2022-12-03T08:29:14.455Z,3.48
2022-12-03T08:31:41.840Z,3.50
2022-12-03T08:34:27.173Z,3.53
2022-12-03T08:37:01.387Z,3.54
2022-12-03T08:39:40.017Z,3.48
2022-12-03T08:42:40.783Z,3.46
2022-12-03T08:45:28.134Z,3.42
2022-12-03T08:48:02.638Z,3.40
2022-12-03T08:50:32.284Z,3.39
2022-12-03T08:53:14.273Z,3.43
2022-12-03T08:55:52.972Z,3.43
2022-12-03T08:58:40.616Z,3.42
2022-12-03T09:01:10.713Z,3.45
2022-12-03T09:03:54.999Z,3.40
2022-12-03T09:06:22.940Z,3.38
2022-12-03T09:08:49.725Z,3.34
2022-12-03T09:11:16.540Z,3.34
2022-12-03T09:13:43.362Z,3.31
2022-12-03T09:16:10.353Z,3.33
2022-12-03T09:18:37.299Z,3.33
2022-12-03T09:21:04.285Z,3.32
2022-12-03T09:23:31.197Z,3.32
2022-12-03T09:25:59.136Z,3.29
2022-12-03T09:28:26.050Z,3.28
2022-12-03T09:30:52.920Z,3.29
2022-12-03T09:33:19.793Z,3.29
2022-12-03T09:35:46.718Z,3.24
2022-12-03T09:38:13.545Z,3.23
2022-12-03T09:40:40.995Z,3.21
2022-12-03T09:43:07.984Z,3.25
2022-12-03T09:45:35.158Z,3.30
2022-12-03T09:48:04.063Z,3.23
2022-12-03T09:50:32.116Z,3.25
2022-12-03T09:53:03.384Z,3.29
2022-12-03T09:55:30.990Z,3.34
2022-12-03T09:57:58.915Z,3.31
2022-12-03T10:00:29.423Z,3.28
2022-12-03T10:03:02.945Z,3.25
2022-12-03T10:05:30.523Z,3.22
2022-12-03T10:08:05.569Z,3.26
2022-12-03T10:10:33.739Z,3.33
2022-12-03T10:13:00.959Z,3.36
2022-12-03T10:15:27.991Z,3.44
2022-12-03T10:17:56.669Z,3.43
2022-12-03T10:20:25.678Z,3.36
2022-12-03T10:22:52.575Z,3.33
2022-12-03T10:25:22.611Z,3.34
2022-12-03T10:27:58.384Z,3.36
2022-12-03T10:30:28.672Z,3.30
2022-12-03T10:32:58.684Z,3.38
2022-12-03T10:35:37.652Z,3.42
2022-12-03T10:38:05.898Z,3.52
2022-12-03T10:40:37.883Z,3.49
2022-12-03T10:43:19.634Z,3.54
2022-12-03T10:45:51.764Z,3.57
2022-12-03T10:48:27.680Z,3.60
2022-12-03T10:50:55.893Z,3.70
2022-12-03T10:53:35.732Z,3.77
2022-12-03T10:56:06.020Z,3.70
2022-12-03T10:58:37.924Z,3.67
2022-12-03T11:01:18.105Z,3.70
2022-12-03T11:03:45.356Z,3.75
2022-12-03T11:06:18.237Z,3.78
2022-12-03T11:08:54.693Z,3.81
2022-12-03T11:11:29.057Z,3.73
2022-12-03T11:14:04.084Z,3.69
2022-12-03T11:16:40.106Z,3.69
2022-12-03T11:19:12.999Z,3.70
2022-12-03T11:22:18.628Z,3.72
2022-12-03T11:24:45.557Z,3.73
2022-12-03T11:27:12.340Z,3.66
2022-12-03T11:29:59.653Z,3.72
2022-12-03T11:32:38.585Z,3.61
2022-12-03T11:35:13.601Z,3.61
2022-12-03T11:37:40.569Z,3.56
2022-12-03T11:40:27.853Z,3.63
2022-12-03T11:42:54.742Z,3.78
2022-12-03T11:45:35.408Z,3.77
2022-12-03T11:48:10.589Z,3.60
2022-12-03T11:50:53.764Z,3.63
2022-12-03T11:53:24.260Z,3.67
2022-12-03T11:56:06.728Z,3.66
2022-12-03T11:58:43.520Z,3.69
2022-12-03T12:01:10.774Z,3.73
2022-12-03T12:03:45.970Z,3.73
2022-12-03T12:06:14.491Z,3.80
2022-12-03T12:09:03.838Z,3.69
2022-12-03T12:11:40.569Z,3.70
2022-12-03T12:14:09.828Z,3.59
2022-12-03T12:16:42.704Z,3.53
2022-12-03T12:19:28.656Z,3.60
2022-12-03T12:21:56.675Z,3.57
2022-12-03T12:24:43.512Z,3.62
2022-12-03T12:27:16.131Z,3.70
2022-12-03T12:29:46.411Z,3.63
2022-12-03T12:32:17.190Z,3.51
2022-12-03T12:34:49.073Z,3.52
2022-12-03T12:37:40.936Z,3.53
2022-12-03T12:40:18.003Z,3.66
2022-12-03T12:43:00.167Z,3.61
2022-12-03T12:45:34.438Z,3.65
2022-12-03T12:48:01.422Z,3.67
2022-12-03T12:50:28.199Z,3.65
2022-12-03T12:53:02.199Z,3.63
2022-12-03T12:55:29.129Z,3.52
2022-12-03T12:58:02.328Z,3.47
2022-12-03T13:00:29.188Z,3.46
2022-12-03T13:03:00.392Z,3.40
2022-12-03T13:05:36.849Z,3.45
2022-12-03T13:08:10.561Z,3.35
2022-12-03T13:10:41.317Z,3.30
2022-12-03T13:13:23.772Z,3.28
2022-12-03T13:16:22.224Z,3.24
2022-12-03T13:18:53.856Z,3.25
2022-12-03T13:21:23.239Z,3.27
2022-12-03T13:23:59.116Z,3.32
2022-12-03T13:26:39.799Z,3.37
2022-12-03T13:29:13.546Z,3.37
2022-12-03T13:31:44.192Z,3.27
2022-12-03T13:34:18.990Z,3.24
2022-12-03T13:36:51.950Z,3.23
2022-12-03T13:39:32.570Z,3.16
2022-12-03T13:42:26.999Z,3.06
2022-12-03T13:44:54.405Z,3.03
2022-12-03T13:47:23.929Z,3.07
2022-12-03T13:50:03.730Z,3.02
2022-12-03T13:52:33.520Z,2.99
2022-12-03T13:55:03.512Z,2.94
2022-12-03T13:57:30.403Z,2.95
2022-12-03T13:59:57.405Z,3.00
2022-12-03T14:02:24.602Z,2.99
2022-12-03T14:04:56.801Z,3.00
2022-12-03T14:07:27.077Z,3.02
2022-12-03T14:09:54.200Z,2.98
2022-12-03T14:12:26.932Z,2.94
2022-12-03T14:14:57.601Z,2.91
2022-12-03T14:17:24.412Z,2.85
2022-12-03T14:19:51.370Z,2.86
2022-12-03T14:22:19.583Z,2.85
2022-12-03T14:24:46.573Z,2.77
2022-12-03T14:27:13.386Z,2.82
2022-12-03T14:29:40.250Z,2.79
2022-12-03T14:32:07.168Z,2.73
2022-12-03T14:34:34.032Z,2.75
2022-12-03T14:37:00.922Z,2.71
2022-12-03T14:39:27.760Z,2.69
2022-12-03T14:42:14.100Z,2.65
2022-12-03T14:44:51.143Z,2.69
2022-12-03T14:47:22.672Z,2.63
2022-12-03T14:49:50.888Z,2.60
2022-12-03T14:52:18.546Z,2.54
2022-12-03T14:54:45.617Z,2.48
2022-12-03T14:57:14.174Z,2.43
2022-12-03T14:59:43.277Z,2.42
2022-12-03T15:02:11.471Z,2.41
2022-12-03T15:04:39.799Z,2.38
2022-12-03T15:07:07.687Z,2.35
2022-12-03T15:09:34.994Z,2.41
2022-12-03T15:12:03.055Z,2.39
2022-12-03T15:14:29.943Z,2.34
2022-12-03T15:16:56.882Z,2.32
2022-12-03T15:19:23.853Z,2.34
2022-12-03T15:21:50.917Z,2.33
2022-12-03T15:24:17.870Z,2.29
2022-12-03T15:26:44.732Z,2.33
2022-12-03T15:29:12.226Z,2.31
2022-12-03T15:31:39.075Z,2.30
2022-12-03T15:34:06.043Z,2.29
2022-12-03T15:36:32.852Z,2.27
2022-12-03T15:39:00.032Z,2.21
2022-12-03T15:41:29.872Z,2.22
2022-12-03T15:43:59.262Z,2.21
2022-12-03T15:46:28.112Z,2.17
2022-12-03T15:48:55.949Z,2.14
2022-12-03T15:51:23.610Z,2.13
2022-12-03T15:53:51.300Z,2.11
2022-12-03T15:56:18.353Z,2.16
2022-12-03T15:58:45.328Z,2.12
2022-12-03T16:01:13.628Z,2.11
2022-12-03T16:03:41.364Z,2.03
2022-12-03T16:06:08.177Z,2.08
2022-12-03T16:08:35.394Z,2.11
2022-12-03T16:11:03.964Z,2.09
2022-12-03T16:13:31.226Z,2.05
2022-12-03T16:15:58.212Z,2.07
2022-12-03T16:18:25.394Z,2.05
2022-12-03T16:20:52.313Z,2.08
2022-12-03T16:23:19.332Z,2.07
2022-12-03T16:25:46.296Z,2.05
2022-12-03T16:28:13.108Z,2.05
2022-12-03T16:30:40.064Z,2.01
2022-12-03T16:33:07.101Z,2.01
2022-12-03T16:35:34.042Z,2.05
2022-12-03T16:38:00.881Z,2.06
2022-12-03T16:40:27.763Z,2.03
2022-12-03T16:42:56.529Z,2.04
2022-12-03T16:45:33.746Z,2.01
2022-12-03T16:48:02.027Z,2.04
2022-12-03T16:50:30.246Z,2.04
2022-12-03T16:52:58.219Z,2.04
2022-12-03T16:55:25.441Z,2.00
2022-12-03T16:57:52.466Z,2.01
2022-12-03T17:00:21.895Z,2.00
2022-12-03T17:02:49.591Z,1.99
2022-12-03T17:05:16.532Z,1.99
2022-12-03T17:07:43.639Z,1.97
2022-12-03T17:10:11.447Z,2.00
2022-12-03T17:13:07.838Z,2.03
2022-12-03T17:15:25.668Z,2.00
2022-12-03T17:17:53.293Z,1.98
2022-12-03T17:20:20.158Z,1.99
2022-12-03T17:22:47.300Z,2.00
2022-12-03T17:25:14.170Z,2.00
2022-12-03T17:27:44.985Z,2.02
2022-12-03T17:30:13.074Z,1.98
2022-12-03T17:32:40.314Z,2.04
2022-12-03T17:35:07.844Z,2.05
2022-12-03T17:37:34.791Z,2.05
2022-12-03T17:40:02.119Z,2.01
2022-12-03T17:42:28.895Z,2.04
2022-12-03T17:44:56.251Z,2.06
2022-12-03T17:47:24.502Z,2.04
2022-12-03T17:49:51.578Z,1.99
2022-12-03T17:52:18.725Z,1.97
2022-12-03T17:55:09.097Z,2.00
2022-12-03T17:57:32.575Z,1.99
2022-12-03T17:59:59.540Z,1.98
2022-12-03T18:02:26.504Z,1.98
2022-12-03T18:04:53.483Z,1.99
2022-12-03T18:07:20.326Z,1.98
2022-12-03T18:09:47.138Z,1.95
2022-12-03T18:12:14.388Z,1.94
2022-12-03T18:14:41.171Z,1.96
2022-12-03T18:17:08.029Z,1.96
2022-12-03T18:19:34.946Z,1.91
2022-12-03T18:22:02.063Z,1.87
2022-12-03T18:24:28.896Z,1.85
2022-12-03T18:26:55.958Z,1.82
2022-12-03T18:29:24.389Z,1.84
2022-12-03T18:31:51.415Z,1.82
2022-12-03T18:34:18.289Z,1.79
2022-12-03T18:36:45.879Z,1.75
2022-12-03T18:39:23.065Z,1.74
2022-12-03T18:41:49.983Z,1.71
2022-12-03T18:44:16.793Z,1.70
2022-12-03T18:46:59.228Z,1.71
2022-12-03T18:49:26.319Z,1.70
2022-12-03T18:51:59.286Z,1.72
2022-12-03T18:54:26.684Z,1.72
2022-12-03T18:56:53.625Z,1.73
2022-12-03T18:59:20.786Z,1.74
2022-12-03T19:01:47.702Z,1.76
2022-12-03T19:04:14.524Z,1.75
2022-12-03T19:06:41.519Z,1.72
2022-12-03T19:09:09.073Z,1.72
2022-12-03T19:11:36.007Z,1.70
2022-12-03T19:14:03.280Z,1.74
2022-12-03T19:16:30.557Z,1.73
2022-12-03T19:18:57.935Z,1.76
2022-12-03T19:21:27.345Z,1.74
2022-12-03T19:24:23.346Z,1.73
2022-12-03T19:26:45.014Z,1.74
2022-12-03T19:29:12.107Z,1.77
2022-12-03T19:31:39.851Z,1.81
2022-12-03T19:34:07.144Z,1.88
2022-12-03T19:36:34.071Z,1.93
2022-12-03T19:39:01.555Z,1.93
2022-12-03T19:41:30.628Z,1.97
2022-12-03T19:43:58.373Z,1.99
2022-12-03T19:46:28.750Z,1.98
2022-12-03T19:48:55.921Z,2.02
2022-12-03T19:51:38.037Z,2.04
2022-12-03T19:54:06.964Z,2.04
2022-12-03T19:56:34.645Z,2.03
2022-12-03T19:59:02.080Z,2.05
2022-12-03T20:01:31.679Z,2.08
2022-12-03T20:04:00.463Z,2.08
2022-12-03T20:06:29.833Z,2.08
2022-12-03T20:08:58.823Z,2.14
2022-12-03T20:11:28.210Z,2.12
2022-12-03T20:13:57.439Z,2.13
2022-12-03T20:16:26.067Z,2.05
2022-12-03T20:18:58.394Z,1.94
2022-12-03T20:21:25.570Z,1.95
2022-12-03T20:23:52.605Z,1.94
2022-12-03T20:26:21.326Z,1.92
2022-12-03T20:28:48.817Z,1.92
2022-12-03T20:31:19.622Z,1.93
2022-12-03T20:33:49.106Z,1.91
2022-12-03T20:36:18.237Z,1.88
2022-12-03T20:38:45.368Z,1.87
2022-12-03T20:41:18.765Z,1.89
2022-12-03T20:43:46.118Z,1.88
2022-12-03T20:46:21.836Z,1.87
2022-12-03T20:48:49.075Z,1.83
2022-12-03T20:51:18.728Z,1.82
2022-12-03T20:53:46.445Z,1.80
2022-12-03T20:56:20.334Z,1.80
2022-12-03T20:58:50.917Z,1.76
2022-12-03T21:01:26.566Z,1.72
2022-12-03T21:03:55.300Z,1.73
2022-12-03T21:06:23.301Z,1.75
2022-12-03T21:08:52.172Z,1.76
2022-12-03T21:11:24.059Z,1.76
2022-12-03T21:13:51.857Z,1.79
2022-12-03T21:16:52.197Z,1.79
2022-12-03T21:19:12.873Z,1.82
2022-12-03T21:21:39.706Z,1.78
2022-12-03T21:24:07.089Z,1.80
2022-12-03T21:26:34.053Z,1.81
2022-12-03T21:29:00.933Z,1.84
2022-12-03T21:31:27.881Z,1.81
2022-12-03T21:33:56.628Z,1.83
2022-12-03T21:36:24.671Z,1.82
2022-12-03T21:38:52.057Z,1.84
2022-12-03T21:41:19.129Z,1.80
2022-12-03T21:43:46.050Z,1.80
2022-12-03T21:47:12.621Z,1.78
2022-12-03T21:49:02.517Z,1.75
2022-12-03T21:51:29.656Z,1.71
2022-12-03T21:53:56.485Z,1.73
2022-12-03T21:56:23.529Z,1.68
2022-12-03T21:58:50.546Z,1.70
2022-12-03T22:01:23.159Z,1.71
2022-12-03T22:03:50.868Z,1.69
2022-12-03T22:06:18.577Z,1.70
2022-12-03T22:08:45.853Z,1.72
2022-12-03T22:11:21.591Z,1.72
2022-12-03T22:13:49.269Z,1.71
2022-12-03T22:16:18.940Z,1.66
2022-12-03T22:18:46.051Z,1.61
2022-12-03T22:21:16.980Z,1.61
2022-12-03T22:23:43.950Z,1.59
2022-12-03T22:26:13.880Z,1.60
2022-12-03T22:28:48.375Z,1.60
2022-12-03T22:31:16.932Z,1.58
2022-12-03T22:33:48.039Z,1.52
2022-12-03T22:36:20.620Z,1.49
2022-12-03T22:38:50.675Z,1.48
2022-12-03T22:41:18.243Z,1.53
2022-12-03T22:43:45.967Z,1.50
2022-12-03T22:46:13.344Z,1.40
2022-12-03T22:48:44.962Z,1.39
2022-12-03T22:51:20.525Z,1.44
2022-12-03T22:53:47.856Z,1.41
2022-12-03T22:56:16.028Z,1.39
2022-12-03T22:58:42.963Z,1.37
2022-12-03T23:01:09.706Z,1.32
2022-12-03T23:03:37.053Z,1.30
2022-12-03T23:06:11.619Z,1.27
2022-12-03T23:08:38.504Z,1.22
2022-12-03T23:11:05.501Z,1.06
2022-12-03T23:13:32.605Z,0.98
2022-12-03T23:15:59.766Z,0.90
2022-12-03T23:18:26.585Z,0.83
2022-12-03T23:20:55.288Z,0.77
2022-12-03T23:23:24.323Z,0.66
2022-12-03T23:26:05.357Z,0.58
2022-12-03T23:28:34.429Z,0.51
2022-12-03T23:31:01.840Z,0.50
2022-12-03T23:33:33.970Z,0.50
2022-12-03T23:36:05.839Z,0.50
2022-12-03T23:38:32.963Z,0.49
2022-12-03T23:41:07.921Z,0.51
2022-12-03T23:43:34.991Z,0.52
2022-12-03T23:46:06.929Z,0.52
2022-12-03T23:48:33.989Z,0.52
2022-12-03T23:51:09.238Z,0.52
2022-12-03T23:53:37.562Z,0.52
2022-12-03T23:56:09.796Z,0.49
2022-12-03T23:58:36.992Z,0.51
